sensor_id;sensor_type;location;lat;lon;timestamp;pressure;altitude;pressure_sealevel;temperature
42119;BMP280;27783;42.782;23.274;2023-07-29T00:01:41;95385.34;;;15.90
42119;BMP280;27783;42.782;23.274;2023-07-29T00:04:08;95386.47;;;15.93
42119;BMP280;27783;42.782;23.274;2023-07-29T00:06:51;95383.50;;;15.87
42119;BMP280;27783;42.782;23.274;2023-07-29T00:09:17;95388.28;;;15.49
42119;BMP280;27783;42.782;23.274;2023-07-29T00:11:44;95392.63;;;15.09
42119;BMP280;27783;42.782;23.274;2023-07-29T00:14:09;95392.63;;;15.09
42119;BMP280;27783;42.782;23.274;2023-07-29T00:16:34;95381.22;;;15.27
42119;BMP280;27783;42.782;23.274;2023-07-29T00:19:15;95373.34;;;15.05
42119;BMP280;27783;42.782;23.274;2023-07-29T00:21:41;95380.34;;;14.80
42119;BMP280;27783;42.782;23.274;2023-07-29T00:24:07;95381.50;;;14.60
42119;BMP280;27783;42.782;23.274;2023-07-29T00:26:34;95382.03;;;14.52
42119;BMP280;27783;42.782;23.274;2023-07-29T00:28:59;95373.44;;;14.48
42119;BMP280;27783;42.782;23.274;2023-07-29T00:31:26;95382.78;;;14.52
42119;BMP280;27783;42.782;23.274;2023-07-29T00:33:52;95375.34;;;14.82
42119;BMP280;27783;42.782;23.274;2023-07-29T00:36:18;95380.41;;;14.96
42119;BMP280;27783;42.782;23.274;2023-07-29T00:38:44;95376.84;;;14.83
42119;BMP280;27783;42.782;23.274;2023-07-29T00:41:11;95373.44;;;14.83
42119;BMP280;27783;42.782;23.274;2023-07-29T00:43:39;95371.69;;;14.95
42119;BMP280;27783;42.782;23.274;2023-07-29T00:46:11;95373.22;;;15.12
42119;BMP280;27783;42.782;23.274;2023-07-29T00:48:38;95376.63;;;15.12
42119;BMP280;27783;42.782;23.274;2023-07-29T00:51:05;95375.31;;;15.20
42119;BMP280;27783;42.782;23.274;2023-07-29T00:53:31;95369.22;;;15.04
42119;BMP280;27783;42.782;23.274;2023-07-29T00:55:58;95372.22;;;14.87
42119;BMP280;27783;42.782;23.274;2023-07-29T00:58:24;95368.72;;;14.36
42119;BMP280;27783;42.782;23.274;2023-07-29T01:00:51;95369.59;;;13.92
42119;BMP280;27783;42.782;23.274;2023-07-29T01:03:18;95368.66;;;13.80
42119;BMP280;27783;42.782;23.274;2023-07-29T01:08:21;95373.88;;;13.61
42119;BMP280;27783;42.782;23.274;2023-07-29T01:10:53;95374.69;;;13.58
42119;BMP280;27783;42.782;23.274;2023-07-29T01:13:53;95370.56;;;14.01
42119;BMP280;27783;42.782;23.274;2023-07-29T01:16:42;95373.47;;;14.26
42119;BMP280;27783;42.782;23.274;2023-07-29T01:21:49;95374.50;;;14.50
42119;BMP280;27783;42.782;23.274;2023-07-29T01:24:16;95364.84;;;14.60
42119;BMP280;27783;42.782;23.274;2023-07-29T01:26:42;95363.00;;;14.57
42119;BMP280;27783;42.782;23.274;2023-07-29T01:29:08;95375.81;;;14.43
42119;BMP280;27783;42.782;23.274;2023-07-29T01:31:50;95368.59;;;14.24
42119;BMP280;27783;42.782;23.274;2023-07-29T01:34:37;95370.22;;;14.37
42119;BMP280;27783;42.782;23.274;2023-07-29T01:37:09;95372.19;;;14.33
42119;BMP280;27783;42.782;23.274;2023-07-29T01:39:37;95372.06;;;14.21
42119;BMP280;27783;42.782;23.274;2023-07-29T01:42:06;95368.94;;;14.26
42119;BMP280;27783;42.782;23.274;2023-07-29T01:44:33;95365.81;;;14.31
42119;BMP280;27783;42.782;23.274;2023-07-29T01:46:59;95376.50;;;14.28
42119;BMP280;27783;42.782;23.274;2023-07-29T01:49:26;95372.41;;;14.23
42119;BMP280;27783;42.782;23.274;2023-07-29T01:51:52;95374.84;;;14.33
42119;BMP280;27783;42.782;23.274;2023-07-29T01:54:19;95376.22;;;14.41
42119;BMP280;27783;42.782;23.274;2023-07-29T01:56:44;95385.13;;;14.50
42119;BMP280;27783;42.782;23.274;2023-07-29T01:59:10;95374.59;;;14.28
42119;BMP280;27783;42.782;23.274;2023-07-29T02:01:38;95381.03;;;14.27
42119;BMP280;27783;42.782;23.274;2023-07-29T02:04:06;95377.19;;;14.32
42119;BMP280;27783;42.782;23.274;2023-07-29T02:06:33;95381.91;;;14.40
42119;BMP280;27783;42.782;23.274;2023-07-29T02:08:59;95376.97;;;14.42
42119;BMP280;27783;42.782;23.274;2023-07-29T02:11:26;95384.56;;;14.40
42119;BMP280;27783;42.782;23.274;2023-07-29T02:13:53;95382.94;;;14.46
42119;BMP280;27783;42.782;23.274;2023-07-29T02:16:20;95384.63;;;14.36
42119;BMP280;27783;42.782;23.274;2023-07-29T02:18:50;95384.09;;;14.26
42119;BMP280;27783;42.782;23.274;2023-07-29T02:21:16;95393.28;;;14.21
42119;BMP280;27783;42.782;23.274;2023-07-29T02:23:42;95383.63;;;14.12
42119;BMP280;27783;42.782;23.274;2023-07-29T02:26:07;95383.56;;;13.93
42119;BMP280;27783;42.782;23.274;2023-07-29T02:28:33;95388.47;;;13.94
42119;BMP280;27783;42.782;23.274;2023-07-29T02:31:23;95397.94;;;13.95
42119;BMP280;27783;42.782;23.274;2023-07-29T02:33:49;95386.56;;;13.95
42119;BMP280;27783;42.782;23.274;2023-07-29T02:36:15;95390.03;;;13.92
42119;BMP280;27783;42.782;23.274;2023-07-29T02:38:42;95388.81;;;13.96
42119;BMP280;27783;42.782;23.274;2023-07-29T02:41:09;95387.66;;;13.97
42119;BMP280;27783;42.782;23.274;2023-07-29T02:43:37;95389.22;;;13.95
42119;BMP280;27783;42.782;23.274;2023-07-29T02:46:04;95385.06;;;13.94
42119;BMP280;27783;42.782;23.274;2023-07-29T02:48:30;95382.78;;;13.96
42119;BMP280;27783;42.782;23.274;2023-07-29T02:50:56;95390.53;;;14.06
42119;BMP280;27783;42.782;23.274;2023-07-29T02:53:22;95401.06;;;14.09
42119;BMP280;27783;42.782;23.274;2023-07-29T02:55:50;95393.16;;;14.06
42119;BMP280;27783;42.782;23.274;2023-07-29T02:58:15;95395.03;;;14.09
42119;BMP280;27783;42.782;23.274;2023-07-29T03:00:42;95398.81;;;13.89
42119;BMP280;27783;42.782;23.274;2023-07-29T03:03:09;95396.81;;;13.93
42119;BMP280;27783;42.782;23.274;2023-07-29T03:05:36;95409.94;;;13.77
42119;BMP280;27783;42.782;23.274;2023-07-29T03:08:03;95408.47;;;13.50
42119;BMP280;27783;42.782;23.274;2023-07-29T03:10:29;95409.69;;;13.46
42119;BMP280;27783;42.782;23.274;2023-07-29T03:12:56;95407.59;;;13.34
42119;BMP280;27783;42.782;23.274;2023-07-29T03:15:25;95411.66;;;13.42
42119;BMP280;27783;42.782;23.274;2023-07-29T03:17:53;95407.16;;;13.39
42119;BMP280;27783;42.782;23.274;2023-07-29T03:20:19;95410.38;;;13.50
42119;BMP280;27783;42.782;23.274;2023-07-29T03:22:45;95410.06;;;13.22
42119;BMP280;27783;42.782;23.274;2023-07-29T03:25:11;95418.19;;;13.09
42119;BMP280;27783;42.782;23.274;2023-07-29T03:27:37;95422.03;;;13.30
42119;BMP280;27783;42.782;23.274;2023-07-29T03:30:04;95426.63;;;13.26
42119;BMP280;27783;42.782;23.274;2023-07-29T03:32:32;95423.00;;;13.43
42119;BMP280;27783;42.782;23.274;2023-07-29T03:34:57;95422.81;;;13.27
42119;BMP280;27783;42.782;23.274;2023-07-29T03:37:24;95424.13;;;13.42
42119;BMP280;27783;42.782;23.274;2023-07-29T03:39:51;95417.59;;;13.24
42119;BMP280;27783;42.782;23.274;2023-07-29T03:42:19;95418.75;;;13.23
42119;BMP280;27783;42.782;23.274;2023-07-29T03:44:46;95416.28;;;13.35
42119;BMP280;27783;42.782;23.274;2023-07-29T03:47:11;95408.63;;;13.40
42119;BMP280;27783;42.782;23.274;2023-07-29T03:49:36;95408.56;;;13.44
42119;BMP280;27783;42.782;23.274;2023-07-29T03:52:03;95409.19;;;13.77
42119;BMP280;27783;42.782;23.274;2023-07-29T03:54:28;95417.03;;;13.83
42119;BMP280;27783;42.782;23.274;2023-07-29T03:56:54;95415.06;;;13.65
42119;BMP280;27783;42.782;23.274;2023-07-29T03:59:20;95413.00;;;13.76
42119;BMP280;27783;42.782;23.274;2023-07-29T04:01:48;95414.47;;;13.77
42119;BMP280;27783;42.782;23.274;2023-07-29T04:04:13;95417.94;;;13.96
42119;BMP280;27783;42.782;23.274;2023-07-29T04:06:40;95423.50;;;14.05
42119;BMP280;27783;42.782;23.274;2023-07-29T04:09:05;95416.34;;;13.80
42119;BMP280;27783;42.782;23.274;2023-07-29T04:11:30;95415.66;;;13.98
42119;BMP280;27783;42.782;23.274;2023-07-29T04:13:57;95415.47;;;14.08
42119;BMP280;27783;42.782;23.274;2023-07-29T04:16:22;95425.13;;;13.99
42119;BMP280;27783;42.782;23.274;2023-07-29T04:18:48;95422.34;;;13.83
42119;BMP280;27783;42.782;23.274;2023-07-29T04:21:13;95424.38;;;13.73
42119;BMP280;27783;42.782;23.274;2023-07-29T04:23:41;95425.78;;;13.81
42119;BMP280;27783;42.782;23.274;2023-07-29T04:26:07;95426.59;;;14.00
42119;BMP280;27783;42.782;23.274;2023-07-29T04:28:33;95420.78;;;14.08
42119;BMP280;27783;42.782;23.274;2023-07-29T04:30:59;95422.56;;;14.15
42119;BMP280;27783;42.782;23.274;2023-07-29T04:33:25;95426.19;;;14.43
42119;BMP280;27783;42.782;23.274;2023-07-29T04:35:50;95422.66;;;14.68
42119;BMP280;27783;42.782;23.274;2023-07-29T04:38:16;95427.28;;;14.64
42119;BMP280;27783;42.782;23.274;2023-07-29T04:40:41;95431.50;;;14.81
42119;BMP280;27783;42.782;23.274;2023-07-29T04:43:06;95436.81;;;14.81
42119;BMP280;27783;42.782;23.274;2023-07-29T04:45:34;95431.75;;;15.05
42119;BMP280;27783;42.782;23.274;2023-07-29T04:48:00;95441.63;;;15.23
42119;BMP280;27783;42.782;23.274;2023-07-29T04:50:26;95441.22;;;15.40
42119;BMP280;27783;42.782;23.274;2023-07-29T04:52:52;95446.22;;;15.54
42119;BMP280;27783;42.782;23.274;2023-07-29T04:55:18;95444.66;;;15.87
42119;BMP280;27783;42.782;23.274;2023-07-29T04:57:47;95452.50;;;16.10
42119;BMP280;27783;42.782;23.274;2023-07-29T05:00:20;95449.78;;;16.41
42119;BMP280;27783;42.782;23.274;2023-07-29T05:02:47;95448.41;;;16.76
42119;BMP280;27783;42.782;23.274;2023-07-29T05:05:12;95443.91;;;16.89
42119;BMP280;27783;42.782;23.274;2023-07-29T05:07:38;95444.81;;;17.10
42119;BMP280;27783;42.782;23.274;2023-07-29T05:10:05;95448.84;;;16.75
42119;BMP280;27783;42.782;23.274;2023-07-29T05:12:30;95445.47;;;16.86
42119;BMP280;27783;42.782;23.274;2023-07-29T05:14:58;95453.31;;;17.05
42119;BMP280;27783;42.782;23.274;2023-07-29T05:17:23;95458.63;;;16.93
42119;BMP280;27783;42.782;23.274;2023-07-29T05:19:49;95455.50;;;17.47
42119;BMP280;27783;42.782;23.274;2023-07-29T05:22:15;95447.69;;;18.25
42119;BMP280;27783;42.782;23.274;2023-07-29T05:24:42;95444.59;;;18.26
42119;BMP280;27783;42.782;23.274;2023-07-29T05:27:08;95451.56;;;18.78
42119;BMP280;27783;42.782;23.274;2023-07-29T05:29:34;95444.63;;;18.80
42119;BMP280;27783;42.782;23.274;2023-07-29T05:31:59;95448.72;;;18.93
42119;BMP280;27783;42.782;23.274;2023-07-29T05:34:24;95450.22;;;19.45
42119;BMP280;27783;42.782;23.274;2023-07-29T05:36:52;95454.31;;;19.28
42119;BMP280;27783;42.782;23.274;2023-07-29T05:39:19;95457.22;;;19.21
42119;BMP280;27783;42.782;23.274;2023-07-29T05:41:45;95454.59;;;19.30
42119;BMP280;27783;42.782;23.274;2023-07-29T05:44:13;95449.13;;;19.54
42119;BMP280;27783;42.782;23.274;2023-07-29T05:46:38;95446.06;;;20.20
42119;BMP280;27783;42.782;23.274;2023-07-29T05:49:04;95452.09;;;20.68
42119;BMP280;27783;42.782;23.274;2023-07-29T05:51:29;95455.66;;;20.48
42119;BMP280;27783;42.782;23.274;2023-07-29T05:53:54;95455.38;;;20.72
42119;BMP280;27783;42.782;23.274;2023-07-29T05:56:21;95446.91;;;20.73
42119;BMP280;27783;42.782;23.274;2023-07-29T05:58:47;95448.22;;;20.69
42119;BMP280;27783;42.782;23.274;2023-07-29T06:01:14;95446.41;;;21.01
42119;BMP280;27783;42.782;23.274;2023-07-29T06:03:40;95444.66;;;20.89
42119;BMP280;27783;42.782;23.274;2023-07-29T06:06:07;95444.06;;;21.61
42119;BMP280;27783;42.782;23.274;2023-07-29T06:08:34;95441.53;;;21.08
42119;BMP280;27783;42.782;23.274;2023-07-29T06:11:01;95447.03;;;21.14
42119;BMP280;27783;42.782;23.274;2023-07-29T06:13:33;95449.00;;;21.53
42119;BMP280;27783;42.782;23.274;2023-07-29T06:15:58;95443.28;;;21.78
42119;BMP280;27783;42.782;23.274;2023-07-29T06:18:24;95441.97;;;22.05
42119;BMP280;27783;42.782;23.274;2023-07-29T06:20:51;95438.81;;;22.38
42119;BMP280;27783;42.782;23.274;2023-07-29T06:23:17;95437.16;;;22.63
42119;BMP280;27783;42.782;23.274;2023-07-29T06:25:43;95428.56;;;22.73
42119;BMP280;27783;42.782;23.274;2023-07-29T06:28:09;95434.72;;;22.88
42119;BMP280;27783;42.782;23.274;2023-07-29T06:30:35;95423.03;;;23.05
42119;BMP280;27783;42.782;23.274;2023-07-29T06:33:06;95424.06;;;22.93
42119;BMP280;27783;42.782;23.274;2023-07-29T06:35:32;95425.94;;;23.72
42119;BMP280;27783;42.782;23.274;2023-07-29T06:37:59;95413.47;;;23.27
42119;BMP280;27783;42.782;23.274;2023-07-29T06:40:24;95413.97;;;23.73
42119;BMP280;27783;42.782;23.274;2023-07-29T06:42:51;95400.84;;;24.47
42119;BMP280;27783;42.782;23.274;2023-07-29T06:45:17;95398.13;;;24.86
42119;BMP280;27783;42.782;23.274;2023-07-29T06:47:42;95405.09;;;24.34
42119;BMP280;27783;42.782;23.274;2023-07-29T06:50:09;95406.47;;;24.63
42119;BMP280;27783;42.782;23.274;2023-07-29T06:52:34;95413.81;;;25.07
42119;BMP280;27783;42.782;23.274;2023-07-29T06:55:02;95406.97;;;24.09
42119;BMP280;27783;42.782;23.274;2023-07-29T06:57:28;95416.41;;;24.96
42119;BMP280;27783;42.782;23.274;2023-07-29T06:59:57;95414.81;;;25.59
42119;BMP280;27783;42.782;23.274;2023-07-29T07:02:23;95409.41;;;25.84
42119;BMP280;27783;42.782;23.274;2023-07-29T07:04:50;95409.94;;;26.28
42119;BMP280;27783;42.782;23.274;2023-07-29T07:07:17;95414.69;;;25.73
42119;BMP280;27783;42.782;23.274;2023-07-29T07:09:42;95410.69;;;25.63
42119;BMP280;27783;42.782;23.274;2023-07-29T07:12:08;95401.41;;;26.00
42119;BMP280;27783;42.782;23.274;2023-07-29T07:14:35;95403.31;;;26.29
42119;BMP280;27783;42.782;23.274;2023-07-29T07:17:02;95401.09;;;26.28
42119;BMP280;27783;42.782;23.274;2023-07-29T07:19:29;95391.41;;;26.57
42119;BMP280;27783;42.782;23.274;2023-07-29T07:21:54;95395.09;;;25.78
42119;BMP280;27783;42.782;23.274;2023-07-29T07:24:22;95392.84;;;26.99
42119;BMP280;27783;42.782;23.274;2023-07-29T07:26:48;95386.94;;;27.16
42119;BMP280;27783;42.782;23.274;2023-07-29T07:29:15;95373.44;;;27.38
42119;BMP280;27783;42.782;23.274;2023-07-29T07:31:50;95380.13;;;27.63
42119;BMP280;27783;42.782;23.274;2023-07-29T07:34:21;95378.09;;;28.12
42119;BMP280;27783;42.782;23.274;2023-07-29T07:36:47;95380.38;;;27.76
42119;BMP280;27783;42.782;23.274;2023-07-29T07:39:13;95374.69;;;27.42
42119;BMP280;27783;42.782;23.274;2023-07-29T07:41:40;95376.66;;;27.95
42119;BMP280;27783;42.782;23.274;2023-07-29T07:44:05;95371.91;;;28.33
42119;BMP280;27783;42.782;23.274;2023-07-29T07:46:32;95367.09;;;28.76
42119;BMP280;27783;42.782;23.274;2023-07-29T07:48:59;95375.16;;;28.21
42119;BMP280;27783;42.782;23.274;2023-07-29T07:51:24;95366.47;;;28.43
42119;BMP280;27783;42.782;23.274;2023-07-29T07:53:50;95366.75;;;29.35
42119;BMP280;27783;42.782;23.274;2023-07-29T07:56:15;95377.84;;;28.31
42119;BMP280;27783;42.782;23.274;2023-07-29T07:58:42;95380.34;;;28.24
42119;BMP280;27783;42.782;23.274;2023-07-29T08:01:09;95371.84;;;28.49
42119;BMP280;27783;42.782;23.274;2023-07-29T08:03:35;95370.09;;;29.12
42119;BMP280;27783;42.782;23.274;2023-07-29T08:06:04;95364.38;;;29.89
42119;BMP280;27783;42.782;23.274;2023-07-29T08:08:29;95359.06;;;30.48
42119;BMP280;27783;42.782;23.274;2023-07-29T08:10:56;95371.84;;;28.54
42119;BMP280;27783;42.782;23.274;2023-07-29T08:13:24;95370.22;;;30.21
42119;BMP280;27783;42.782;23.274;2023-07-29T08:15:52;95359.28;;;29.75
42119;BMP280;27783;42.782;23.274;2023-07-29T08:18:18;95359.00;;;30.07
42119;BMP280;27783;42.782;23.274;2023-07-29T08:21:04;95357.13;;;30.43
42119;BMP280;27783;42.782;23.274;2023-07-29T08:23:34;95362.06;;;30.21
42119;BMP280;27783;42.782;23.274;2023-07-29T08:26:03;95351.09;;;31.76
42119;BMP280;27783;42.782;23.274;2023-07-29T08:30:57;95350.03;;;32.22
42119;BMP280;27783;42.782;23.274;2023-07-29T08:33:24;95344.75;;;31.86
42119;BMP280;27783;42.782;23.274;2023-07-29T08:35:51;95340.72;;;31.44
42119;BMP280;27783;42.782;23.274;2023-07-29T08:38:18;95335.88;;;30.83
42119;BMP280;27783;42.782;23.274;2023-07-29T08:41:07;95331.78;;;30.53
42119;BMP280;27783;42.782;23.274;2023-07-29T08:43:38;95330.75;;;31.77
42119;BMP280;27783;42.782;23.274;2023-07-29T08:46:04;95325.06;;;32.30
42119;BMP280;27783;42.782;23.274;2023-07-29T08:48:42;95323.31;;;32.46
42119;BMP280;27783;42.782;23.274;2023-07-29T08:51:09;95322.44;;;32.76
42119;BMP280;27783;42.782;23.274;2023-07-29T08:53:38;95316.38;;;33.02
42119;BMP280;27783;42.782;23.274;2023-07-29T08:56:07;95320.34;;;32.18
42119;BMP280;27783;42.782;23.274;2023-07-29T08:58:35;95319.16;;;32.90
42119;BMP280;27783;42.782;23.274;2023-07-29T09:01:00;95320.03;;;31.97
42119;BMP280;27783;42.782;23.274;2023-07-29T09:03:47;95312.16;;;32.06
42119;BMP280;27783;42.782;23.274;2023-07-29T09:06:14;95316.13;;;31.62
42119;BMP280;27783;42.782;23.274;2023-07-29T09:08:40;95307.56;;;32.51
42119;BMP280;27783;42.782;23.274;2023-07-29T09:11:07;95302.91;;;31.83
42119;BMP280;27783;42.782;23.274;2023-07-29T09:13:34;95296.22;;;32.35
42119;BMP280;27783;42.782;23.274;2023-07-29T09:16:01;95288.59;;;32.91
42119;BMP280;27783;42.782;23.274;2023-07-29T09:18:27;95291.84;;;31.33
42119;BMP280;27783;42.782;23.274;2023-07-29T09:20:58;95295.00;;;31.19
42119;BMP280;27783;42.782;23.274;2023-07-29T09:23:24;95279.81;;;33.58
42119;BMP280;27783;42.782;23.274;2023-07-29T09:25:50;95283.03;;;32.84
42119;BMP280;27783;42.782;23.274;2023-07-29T09:28:16;95282.59;;;32.93
42119;BMP280;27783;42.782;23.274;2023-07-29T09:31:03;95282.66;;;32.30
42119;BMP280;27783;42.782;23.274;2023-07-29T09:33:30;95279.50;;;32.51
42119;BMP280;27783;42.782;23.274;2023-07-29T09:36:01;95258.00;;;32.93
42119;BMP280;27783;42.782;23.274;2023-07-29T09:38:27;95258.47;;;33.76
42119;BMP280;27783;42.782;23.274;2023-07-29T09:40:57;95278.66;;;31.80
42119;BMP280;27783;42.782;23.274;2023-07-29T09:43:29;95265.28;;;33.10
42119;BMP280;27783;42.782;23.274;2023-07-29T09:46:03;95266.94;;;32.35
42119;BMP280;27783;42.782;23.274;2023-07-29T09:48:48;95249.94;;;34.34
42119;BMP280;27783;42.782;23.274;2023-07-29T09:51:16;95251.59;;;34.37
42119;BMP280;27783;42.782;23.274;2023-07-29T09:53:43;95256.75;;;31.98
42119;BMP280;27783;42.782;23.274;2023-07-29T09:56:09;95262.50;;;32.07
42119;BMP280;27783;42.782;23.274;2023-07-29T09:58:36;95258.28;;;31.81
42119;BMP280;27783;42.782;23.274;2023-07-29T10:01:06;95254.94;;;32.00
42119;BMP280;27783;42.782;23.274;2023-07-29T10:03:32;95245.78;;;32.61
42119;BMP280;27783;42.782;23.274;2023-07-29T10:06:06;95245.69;;;32.54
42119;BMP280;27783;42.782;23.274;2023-07-29T10:08:33;95238.34;;;33.47
42119;BMP280;27783;42.782;23.274;2023-07-29T10:11:09;95237.84;;;33.75
42119;BMP280;27783;42.782;23.274;2023-07-29T10:13:36;95231.22;;;35.01
42119;BMP280;27783;42.782;23.274;2023-07-29T10:16:03;95232.00;;;33.98
42119;BMP280;27783;42.782;23.274;2023-07-29T10:18:32;95224.47;;;34.53
42119;BMP280;27783;42.782;23.274;2023-07-29T10:21:00;95221.88;;;34.14
42119;BMP280;27783;42.782;23.274;2023-07-29T10:23:28;95223.75;;;33.44
42119;BMP280;27783;42.782;23.274;2023-07-29T10:26:03;95219.44;;;33.56
42119;BMP280;27783;42.782;23.274;2023-07-29T10:28:32;95210.88;;;34.33
42119;BMP280;27783;42.782;23.274;2023-07-29T10:30:58;95201.88;;;35.67
42119;BMP280;27783;42.782;23.274;2023-07-29T10:33:29;95199.03;;;34.95
42119;BMP280;27783;42.782;23.274;2023-07-29T10:35:57;95201.88;;;35.67
42119;BMP280;27783;42.782;23.274;2023-07-29T10:38:24;95186.00;;;36.34
42119;BMP280;27783;42.782;23.274;2023-07-29T10:40:55;95188.28;;;35.99
42119;BMP280;27783;42.782;23.274;2023-07-29T10:43:35;95183.94;;;35.37
42119;BMP280;27783;42.782;23.274;2023-07-29T10:46:20;95186.56;;;36.32
42119;BMP280;27783;42.782;23.274;2023-07-29T10:48:57;95173.50;;;36.54
42119;BMP280;27783;42.782;23.274;2023-07-29T10:51:27;95176.78;;;35.20
42119;BMP280;27783;42.782;23.274;2023-07-29T10:54:12;95174.41;;;35.09
42119;BMP280;27783;42.782;23.274;2023-07-29T10:56:43;95170.63;;;36.31
42119;BMP280;27783;42.782;23.274;2023-07-29T11:01:58;95162.31;;;34.98
42119;BMP280;27783;42.782;23.274;2023-07-29T11:04:29;95164.47;;;34.77
42119;BMP280;27783;42.782;23.274;2023-07-29T11:12:47;95155.03;;;35.51
42119;BMP280;27783;42.782;23.274;2023-07-29T11:15:27;95156.53;;;35.23
42119;BMP280;27783;42.782;23.274;2023-07-29T11:20:29;95157.22;;;37.59
42119;BMP280;27783;42.782;23.274;2023-07-29T11:22:56;95150.81;;;37.09
42119;BMP280;27783;42.782;23.274;2023-07-29T11:25:26;95153.06;;;36.26
42119;BMP280;27783;42.782;23.274;2023-07-29T11:28:01;95146.72;;;36.17
42119;BMP280;27783;42.782;23.274;2023-07-29T11:30:28;95145.84;;;36.07
42119;BMP280;27783;42.782;23.274;2023-07-29T11:32:55;95145.69;;;36.43
42119;BMP280;27783;42.782;23.274;2023-07-29T11:35:21;95143.06;;;36.14
42119;BMP280;27783;42.782;23.274;2023-07-29T11:37:50;95139.22;;;36.86
42119;BMP280;27783;42.782;23.274;2023-07-29T11:40:21;95139.53;;;36.28
42119;BMP280;27783;42.782;23.274;2023-07-29T11:42:50;95142.81;;;35.30
42119;BMP280;27783;42.782;23.274;2023-07-29T11:45:17;95132.13;;;35.92
42119;BMP280;27783;42.782;23.274;2023-07-29T11:47:44;95129.63;;;36.33
42119;BMP280;27783;42.782;23.274;2023-07-29T11:50:19;95131.50;;;36.16
42119;BMP280;27783;42.782;23.274;2023-07-29T11:52:46;95132.75;;;35.69
42119;BMP280;27783;42.782;23.274;2023-07-29T11:55:14;95117.28;;;37.10
42119;BMP280;27783;42.782;23.274;2023-07-29T11:57:43;95119.34;;;37.26
42119;BMP280;27783;42.782;23.274;2023-07-29T12:00:11;95118.44;;;36.38
42119;BMP280;27783;42.782;23.274;2023-07-29T12:02:42;95113.91;;;36.88
42119;BMP280;27783;42.782;23.274;2023-07-29T12:05:12;95116.47;;;35.64
42119;BMP280;27783;42.782;23.274;2023-07-29T12:07:38;95104.94;;;37.59
42119;BMP280;27783;42.782;23.274;2023-07-29T12:10:06;95108.88;;;36.77
42119;BMP280;27783;42.782;23.274;2023-07-29T12:12:31;95100.47;;;36.44
42119;BMP280;27783;42.782;23.274;2023-07-29T12:14:57;95092.56;;;36.48
42119;BMP280;27783;42.782;23.274;2023-07-29T12:17:23;95095.97;;;36.25
42119;BMP280;27783;42.782;23.274;2023-07-29T12:19:49;95099.72;;;36.05
42119;BMP280;27783;42.782;23.274;2023-07-29T12:22:21;95095.41;;;35.81
42119;BMP280;27783;42.782;23.274;2023-07-29T12:24:51;95089.78;;;36.17
42119;BMP280;27783;42.782;23.274;2023-07-29T12:27:21;95088.72;;;36.51
42119;BMP280;27783;42.782;23.274;2023-07-29T12:29:48;95095.66;;;35.39
42119;BMP280;27783;42.782;23.274;2023-07-29T12:32:17;95087.00;;;34.55
42119;BMP280;27783;42.782;23.274;2023-07-29T12:34:44;95095.09;;;35.33
42119;BMP280;27783;42.782;23.274;2023-07-29T12:37:10;95085.28;;;36.05
42119;BMP280;27783;42.782;23.274;2023-07-29T12:39:40;95084.31;;;36.10
42119;BMP280;27783;42.782;23.274;2023-07-29T12:42:08;95089.44;;;35.31
42119;BMP280;27783;42.782;23.274;2023-07-29T12:44:43;95079.09;;;35.83
42119;BMP280;27783;42.782;23.274;2023-07-29T12:47:09;95085.28;;;36.05
42119;BMP280;27783;42.782;23.274;2023-07-29T12:49:38;95080.84;;;37.50
42119;BMP280;27783;42.782;23.274;2023-07-29T12:52:04;95077.94;;;36.38
42119;BMP280;27783;42.782;23.274;2023-07-29T12:54:30;95073.09;;;36.85
42119;BMP280;27783;42.782;23.274;2023-07-29T12:56:56;95082.00;;;35.92
42119;BMP280;27783;42.782;23.274;2023-07-29T12:59:23;95082.09;;;35.48
42119;BMP280;27783;42.782;23.274;2023-07-29T13:01:51;95074.25;;;37.46
42119;BMP280;27783;42.782;23.274;2023-07-29T13:04:17;95070.66;;;36.34
42119;BMP280;27783;42.782;23.274;2023-07-29T13:06:47;95070.91;;;36.59
42119;BMP280;27783;42.782;23.274;2023-07-29T13:09:13;95075.72;;;36.44
42119;BMP280;27783;42.782;23.274;2023-07-29T13:11:39;95079.00;;;35.59
42119;BMP280;27783;42.782;23.274;2023-07-29T13:14:04;95068.97;;;35.39
42119;BMP280;27783;42.782;23.274;2023-07-29T13:16:30;95071.66;;;34.52
42119;BMP280;27783;42.782;23.274;2023-07-29T13:18:57;95074.66;;;35.19
42119;BMP280;27783;42.782;23.274;2023-07-29T13:21:24;95061.13;;;35.29
42119;BMP280;27783;42.782;23.274;2023-07-29T13:23:52;95064.22;;;37.01
42119;BMP280;27783;42.782;23.274;2023-07-29T13:26:19;95071.13;;;36.54
42119;BMP280;27783;42.782;23.274;2023-07-29T13:28:45;95066.56;;;36.42
42119;BMP280;27783;42.782;23.274;2023-07-29T13:31:13;95072.03;;;36.56
42119;BMP280;27783;42.782;23.274;2023-07-29T13:33:40;95055.56;;;36.49
42119;BMP280;27783;42.782;23.274;2023-07-29T13:36:07;95056.75;;;36.32
42119;BMP280;27783;42.782;23.274;2023-07-29T13:38:35;95058.38;;;35.96
42119;BMP280;27783;42.782;23.274;2023-07-29T13:41:02;95063.50;;;35.32
42119;BMP280;27783;42.782;23.274;2023-07-29T13:43:29;95058.00;;;35.32
42119;BMP280;27783;42.782;23.274;2023-07-29T13:45:56;95054.63;;;34.32
42119;BMP280;27783;42.782;23.274;2023-07-29T13:48:23;95057.41;;;34.61
42119;BMP280;27783;42.782;23.274;2023-07-29T13:50:49;95049.53;;;36.12
42119;BMP280;27783;42.782;23.274;2023-07-29T13:53:17;95047.91;;;35.49
42119;BMP280;27783;42.782;23.274;2023-07-29T13:55:43;95047.25;;;34.83
42119;BMP280;27783;42.782;23.274;2023-07-29T13:58:09;95042.78;;;34.29
42119;BMP280;27783;42.782;23.274;2023-07-29T14:00:35;95049.13;;;33.75
42119;BMP280;27783;42.782;23.274;2023-07-29T14:03:01;95051.97;;;34.68
42119;BMP280;27783;42.782;23.274;2023-07-29T14:05:27;95041.25;;;34.21
42119;BMP280;27783;42.782;23.274;2023-07-29T14:07:54;95043.59;;;34.02
42119;BMP280;27783;42.782;23.274;2023-07-29T14:10:21;95041.78;;;34.83
42119;BMP280;27783;42.782;23.274;2023-07-29T14:13:06;95041.19;;;34.77
42119;BMP280;27783;42.782;23.274;2023-07-29T14:15:37;95040.84;;;34.02
42119;BMP280;27783;42.782;23.274;2023-07-29T14:18:03;95039.00;;;33.56
42119;BMP280;27783;42.782;23.274;2023-07-29T14:20:29;95025.56;;;34.14